Time;durP1;ratioP1;P1;durP2;ratioP2;P2;SDS_P1;SDS_P2;PMS_P1;PMS_P2;Temp;Humidity;BMP_temperature;BMP_pressure;BME280_temperature;BME280_humidity;BME280_pressure;Samples;Min_cycle;Max_cycle;Signal;HPM_P1;HPM_P2
2023/03/11 00:00:21;;;;;;;10.53;4.87;;;8.80;99.90;;;;;;5052625;28;20223;-81
2023/03/11 00:02:49;;;;;;;17.20;6.07;;;8.80;99.90;;;;;;5053288;28;20271;-82
2023/03/11 00:05:29;;;;;;;15.13;6.37;;;8.80;99.90;;;;;;5053069;28;20179;-81
2023/03/11 00:07:55;;;;;;;10.73;4.53;;;8.80;99.90;;;;;;5035470;28;20195;-81
2023/03/11 00:10:34;;;;;;;7.43;4.10;;;8.80;99.90;;;;;;5052954;28;20215;-82
2023/03/11 00:13:00;;;;;;;9.77;5.43;;;8.80;99.90;;;;;;5053146;28;20232;-81
2023/03/11 00:15:27;;;;;;;6.00;4.10;;;8.80;99.90;;;;;;5052893;28;20657;-81
2023/03/11 00:17:53;;;;;;;7.63;4.30;;;8.70;99.90;;;;;;5035059;28;20266;-81
2023/03/11 00:20:25;;;;;;;4.37;3.00;;;8.70;99.90;;;;;;5052426;28;20257;-81
2023/03/11 00:22:51;;;;;;;10.77;3.63;;;8.60;99.90;;;;;;5053485;28;20629;-81
2023/03/11 00:25:18;;;;;;;5.87;3.57;;;8.70;99.90;;;;;;5052633;28;20318;-82
2023/03/11 00:27:44;;;;;;;7.10;3.13;;;8.60;99.90;;;;;;5052767;28;20172;-81
2023/03/11 00:30:11;;;;;;;12.53;4.80;;;8.60;99.90;;;;;;5052821;28;20566;-81
2023/03/11 00:32:37;;;;;;;10.03;4.57;;;8.60;99.90;;;;;;5052692;28;20171;-81
2023/03/11 00:35:03;;;;;;;9.07;4.07;;;8.60;99.90;;;;;;5034915;28;20190;-82
2023/03/11 00:37:29;;;;;;;9.80;5.13;;;8.50;99.90;;;;;;5052482;28;20176;-82
2023/03/11 00:39:55;;;;;;;9.60;4.17;;;8.50;99.90;;;;;;5035110;28;20215;-82
2023/03/11 00:42:21;;;;;;;10.47;4.90;;;8.40;99.90;;;;;;5052893;28;20628;-82
2023/03/11 00:44:46;;;;;;;8.73;4.67;;;8.40;99.90;;;;;;5035199;28;20183;-81
2023/03/11 00:47:12;;;;;;;8.97;4.03;;;8.40;99.90;;;;;;5034741;28;20178;-81
2023/03/11 00:49:38;;;;;;;6.27;4.00;;;8.30;99.90;;;;;;5034590;28;20554;-81
2023/03/11 00:52:04;;;;;;;7.77;4.23;;;8.30;99.90;;;;;;5052680;28;20187;-81
2023/03/11 00:54:30;;;;;;;10.83;4.30;;;8.30;99.90;;;;;;5034523;28;20183;-81
2023/03/11 00:56:55;;;;;;;9.23;4.57;;;8.20;99.90;;;;;;5034686;28;20184;-81
2023/03/11 00:59:21;;;;;;;7.63;3.80;;;8.20;99.90;;;;;;5054477;28;20569;-82
2023/03/11 01:01:47;;;;;;;9.03;4.23;;;8.20;99.90;;;;;;5038753;28;20557;-82
2023/03/11 01:04:13;;;;;;;12.10;4.37;;;8.10;99.90;;;;;;5056813;28;20269;-81
2023/03/11 01:06:38;;;;;;;9.33;4.47;;;8.10;99.90;;;;;;5038521;28;20184;-82
2023/03/11 01:09:04;;;;;;;14.47;4.73;;;8.10;99.90;;;;;;5038571;28;20195;-81
2023/03/11 01:11:30;;;;;;;9.23;4.13;;;8.00;99.90;;;;;;5056275;28;20186;-81
2023/03/11 01:13:56;;;;;;;8.97;4.07;;;8.00;99.90;;;;;;5056582;28;20310;-81
2023/03/11 01:16:22;;;;;;;7.67;4.77;;;8.00;99.90;;;;;;5055913;28;20184;-82
2023/03/11 01:18:48;;;;;;;7.33;3.90;;;7.90;99.90;;;;;;5038393;28;20515;-81
2023/03/11 01:21:14;;;;;;;8.77;5.00;;;8.00;99.90;;;;;;5038204;28;20220;-81
2023/03/11 01:23:40;;;;;;;8.37;4.87;;;8.00;99.90;;;;;;5037967;28;20181;-82
2023/03/11 01:26:06;;;;;;;10.50;4.73;;;8.00;99.90;;;;;;5056048;28;20184;-82
2023/03/11 01:28:31;;;;;;;11.63;4.67;;;7.90;99.90;;;;;;5055769;28;20525;-82
2023/03/11 01:30:57;;;;;;;9.97;5.10;;;8.00;99.90;;;;;;5038157;28;20184;-82
2023/03/11 01:33:23;;;;;;;12.03;4.83;;;7.90;99.90;;;;;;5055805;28;20203;-84
2023/03/11 01:35:48;;;;;;;9.43;4.13;;;7.90;99.90;;;;;;5056109;28;20250;-82
2023/03/11 01:38:15;;;;;;;9.57;4.20;;;7.90;99.90;;;;;;5056103;28;20184;-82
2023/03/11 01:40:47;;;;;;;9.90;4.17;;;7.90;99.90;;;;;;5055712;28;20215;-81
2023/03/11 01:43:44;;;;;;;6.87;4.10;;;7.90;99.90;;;;;;5037945;28;20183;-81
2023/03/11 01:46:12;;;;;;;8.57;3.50;;;7.90;99.90;;;;;;5037819;28;20279;-82
2023/03/11 01:48:38;;;;;;;5.93;4.03;;;7.90;99.90;;;;;;5055375;28;20636;-82
2023/03/11 01:51:05;;;;;;;5.33;3.60;;;7.90;99.90;;;;;;5056033;28;20184;-82
2023/03/11 01:53:32;;;;;;;6.53;4.47;;;7.90;99.90;;;;;;5075630;28;20202;-84
2023/03/11 01:55:58;;;;;;;8.47;4.57;;;7.90;99.90;;;;;;5062133;28;20168;-80
2023/03/11 01:58:29;;;;;;;8.67;4.20;;;8.80;99.90;;;;;;5079236;28;20194;-80
2023/03/11 02:00:56;;;;;;;10.87;4.40;;;7.90;99.90;;;;;;5074695;28;20220;-83
2023/03/11 02:03:32;;;;;;;11.33;4.33;;;7.80;99.90;;;;;;5038069;28;20180;-82
2023/03/11 02:06:00;;;;;;;8.63;4.70;;;7.80;99.90;;;;;;5061088;28;20186;-80
2023/03/11 02:08:26;;;;;;;9.50;3.80;;;7.80;99.90;;;;;;5078059;28;20637;-80
2023/03/11 02:10:53;;;;;;;11.10;4.90;;;7.80;99.90;;;;;;5077032;28;20188;-82
2023/03/11 02:13:19;;;;;;;9.00;3.63;;;7.80;99.90;;;;;;5073964;28;20224;-81
2023/03/11 02:15:45;;;;;;;7.50;4.30;;;7.80;99.90;;;;;;5055809;28;20191;-81
2023/03/11 02:18:13;;;;;;;8.77;4.23;;;7.80;99.90;;;;;;5055685;28;20176;-81
2023/03/11 02:20:53;;;;;;;6.13;3.83;;;7.80;99.90;;;;;;5054982;28;20310;-82
2023/03/11 02:23:23;;;;;;;9.17;4.10;;;7.80;99.90;;;;;;5037553;28;20583;-81
2023/03/11 02:26:26;;;;;;;6.70;4.90;;;7.80;99.90;;;;;;5055057;28;20187;-81
2023/03/11 02:28:53;;;;;;;10.17;3.77;;;7.80;99.90;;;;;;5055012;28;20172;-81
2023/03/11 02:31:20;;;;;;;6.00;3.90;;;7.80;99.90;;;;;;5037300;28;20545;-81
2023/03/11 02:33:48;;;;;;;6.57;3.10;;;7.80;99.90;;;;;;5054682;28;20584;-81
2023/03/11 02:36:35;;;;;;;6.30;3.70;;;7.80;99.90;;;;;;5037381;28;20183;-81
2023/03/11 02:39:02;;;;;;;6.90;3.17;;;7.80;99.90;;;;;;5054866;28;20172;-81
2023/03/11 02:41:29;;;;;;;6.23;4.27;;;7.90;99.90;;;;;;5054929;28;20182;-81
2023/03/11 02:43:55;;;;;;;7.63;4.13;;;7.90;99.90;;;;;;5054601;28;20180;-81
2023/03/11 02:46:21;;;;;;;12.03;4.37;;;7.90;99.90;;;;;;5054662;28;20628;-81
2023/03/11 02:48:47;;;;;;;6.37;4.00;;;8.00;99.90;;;;;;5036614;28;20188;-81
2023/03/11 02:51:13;;;;;;;9.00;4.73;;;8.00;99.90;;;;;;5037203;28;20184;-81
2023/03/11 02:53:46;;;;;;;10.80;4.37;;;8.00;99.90;;;;;;5036672;28;20663;-81
2023/03/11 02:56:11;;;;;;;7.53;4.33;;;8.00;99.90;;;;;;5054597;28;20199;-81
2023/03/11 02:58:37;;;;;;;13.37;5.13;;;8.00;99.90;;;;;;5019995;28;20641;-81
2023/03/11 03:01:03;;;;;;;9.43;5.37;;;8.00;99.90;;;;;;5054335;28;20212;-81
2023/03/11 03:03:29;;;;;;;10.73;4.43;;;8.00;99.90;;;;;;5036498;28;20242;-81
2023/03/11 03:05:54;;;;;;;7.97;5.43;;;7.90;99.90;;;;;;5054027;28;20212;-81
2023/03/11 03:08:20;;;;;;;11.03;4.87;;;8.00;99.90;;;;;;5036532;28;20190;-81
2023/03/11 03:10:46;;;;;;;7.00;4.37;;;8.00;99.90;;;;;;5054285;28;20191;-81
2023/03/11 03:13:12;;;;;;;16.97;5.80;;;8.00;99.90;;;;;;5019895;28;20231;-81
2023/03/11 03:15:38;;;;;;;9.23;4.27;;;8.00;99.90;;;;;;5053990;28;20191;-82
2023/03/11 03:18:03;;;;;;;9.20;4.53;;;7.90;99.90;;;;;;5053937;28;20539;-81
2023/03/11 03:20:29;;;;;;;9.20;4.63;;;7.90;99.90;;;;;;5036236;28;20304;-81
2023/03/11 03:22:56;;;;;;;5.90;4.47;;;7.90;99.90;;;;;;5036330;28;20191;-81
2023/03/11 03:25:22;;;;;;;11.43;5.03;;;8.00;99.90;;;;;;5054048;28;20259;-81
2023/03/11 03:27:48;;;;;;;9.23;5.37;;;8.00;99.90;;;;;;5053821;28;20318;-82
2023/03/11 03:30:14;;;;;;;9.43;5.00;;;8.00;99.90;;;;;;5054250;28;20325;-82
2023/03/11 03:32:40;;;;;;;11.37;5.67;;;8.00;99.90;;;;;;5053652;28;20179;-82
2023/03/11 03:35:06;;;;;;;9.27;5.43;;;8.00;99.90;;;;;;5035973;28;20184;-81
2023/03/11 03:37:34;;;;;;;9.17;4.73;;;8.00;99.90;;;;;;5053989;28;20187;-81
2023/03/11 03:40:06;;;;;;;9.87;5.23;;;8.00;99.90;;;;;;5053608;28;20705;-81
2023/03/11 03:42:35;;;;;;;9.83;4.97;;;8.00;99.90;;;;;;5053897;28;20168;-81
2023/03/11 03:45:02;;;;;;;11.63;6.30;;;8.00;99.90;;;;;;5053339;28;20176;-81
2023/03/11 03:47:28;;;;;;;7.67;4.53;;;7.90;99.90;;;;;;5053361;28;20262;-81
2023/03/11 03:49:53;;;;;;;8.37;5.50;;;7.90;99.90;;;;;;5053641;28;20271;-81
2023/03/11 03:52:19;;;;;;;9.40;5.10;;;7.90;99.90;;;;;;5053264;28;20545;-81
2023/03/11 03:54:45;;;;;;;8.73;4.60;;;7.90;99.90;;;;;;5053190;28;20176;-82
2023/03/11 03:57:10;;;;;;;6.87;3.97;;;7.90;99.90;;;;;;5053773;28;20183;-81
2023/03/11 03:59:36;;;;;;;10.10;4.70;;;7.90;99.90;;;;;;5053277;28;20211;-81
2023/03/11 04:02:02;;;;;;;7.03;4.17;;;7.90;99.90;;;;;;5035283;28;20215;-81
2023/03/11 04:04:28;;;;;;;7.93;4.03;;;7.90;99.90;;;;;;5035699;28;20263;-81
2023/03/11 04:06:54;;;;;;;7.93;4.40;;;7.90;99.90;;;;;;5052917;28;20230;-82
2023/03/11 04:09:20;;;;;;;6.93;4.20;;;7.80;99.90;;;;;;5035650;28;20179;-81
2023/03/11 04:11:45;;;;;;;6.30;4.07;;;7.80;99.90;;;;;;5052802;28;20180;-83
2023/03/11 04:14:11;;;;;;;7.63;4.87;;;7.80;99.90;;;;;;5035136;28;20707;-82
2023/03/11 04:16:37;;;;;;;7.30;4.03;;;7.80;99.90;;;;;;5052951;28;20628;-81
2023/03/11 04:19:04;;;;;;;6.07;4.40;;;7.80;99.90;;;;;;5052766;28;20703;-82
2023/03/11 04:21:31;;;;;;;9.47;4.63;;;7.80;99.90;;;;;;5035426;28;20556;-81
2023/03/11 04:23:56;;;;;;;10.13;4.77;;;7.80;99.90;;;;;;5053055;28;20640;-81
2023/03/11 04:26:22;;;;;;;6.50;3.63;;;7.80;99.90;;;;;;5052957;28;20254;-81
2023/03/11 04:28:48;;;;;;;6.47;4.03;;;7.80;99.90;;;;;;5052952;28;20180;-81
2023/03/11 04:31:14;;;;;;;6.33;3.67;;;7.80;99.90;;;;;;5035217;28;20675;-82
2023/03/11 04:33:39;;;;;;;7.33;4.37;;;7.80;99.90;;;;;;5034901;28;20217;-81
2023/03/11 04:36:06;;;;;;;11.97;4.57;;;7.80;99.90;;;;;;5018473;28;20175;-82
2023/03/11 04:38:32;;;;;;;6.17;3.80;;;7.80;99.90;;;;;;5052956;28;20179;-81
2023/03/11 04:41:02;;;;;;;7.73;4.23;;;7.80;99.90;;;;;;5052685;28;20207;-82
2023/03/11 04:43:27;;;;;;;8.33;4.47;;;7.80;99.90;;;;;;5052800;28;20190;-82
2023/03/11 04:45:53;;;;;;;4.47;3.50;;;7.80;99.90;;;;;;5052405;28;20739;-82
2023/03/11 04:48:19;;;;;;;5.13;3.27;;;7.70;99.90;;;;;;5035155;28;20246;-81
2023/03/11 04:50:44;;;;;;;9.13;5.00;;;7.70;99.90;;;;;;5034950;28;20207;-82
2023/03/11 04:53:10;;;;;;;14.27;3.80;;;7.70;99.90;;;;;;5052616;28;20771;-81
2023/03/11 04:55:36;;;;;;;5.63;4.40;;;7.70;99.90;;;;;;5052535;28;20648;-81
2023/03/11 04:58:01;;;;;;;7.30;5.17;;;7.70;99.90;;;;;;5034608;28;20180;-81
2023/03/11 05:00:27;;;;;;;7.83;4.03;;;7.70;99.90;;;;;;5034807;28;20208;-81
2023/03/11 05:02:53;;;;;;;6.27;4.23;;;7.70;99.90;;;;;;5034663;28;20551;-82
2023/03/11 05:05:19;;;;;;;7.50;4.27;;;7.70;99.90;;;;;;5053094;28;20184;-81
2023/03/11 05:07:45;;;;;;;7.50;4.73;;;7.60;99.90;;;;;;5052636;28;20608;-81
2023/03/11 05:10:11;;;;;;;9.30;5.47;;;7.70;99.90;;;;;;5052323;28;20180;-81
2023/03/11 05:12:37;;;;;;;8.80;4.03;;;7.60;99.90;;;;;;5034487;28;20236;-81
2023/03/11 05:15:03;;;;;;;9.47;4.77;;;7.60;99.90;;;;;;5017973;28;20184;-82
2023/03/11 05:17:28;;;;;;;5.60;3.47;;;7.60;99.90;;;;;;5018682;28;20195;-81
2023/03/11 05:19:54;;;;;;;18.13;8.07;;;7.60;99.90;;;;;;5052382;28;20204;-82
2023/03/11 05:22:20;;;;;;;8.97;5.13;;;7.60;99.90;;;;;;5052286;28;20629;-82
2023/03/11 05:24:47;;;;;;;8.73;4.87;;;7.60;99.90;;;;;;5052771;28;20200;-82
2023/03/11 05:27:16;;;;;;;8.43;4.23;;;7.50;99.90;;;;;;5052185;28;20245;-82
2023/03/11 05:29:43;;;;;;;6.70;3.93;;;7.50;99.90;;;;;;5034321;28;20667;-81
2023/03/11 05:32:10;;;;;;;7.60;4.37;;;7.60;99.90;;;;;;5034419;28;20261;-82
2023/03/11 05:34:36;;;;;;;6.80;4.83;;;7.50;99.90;;;;;;5052525;28;20648;-81
2023/03/11 05:37:01;;;;;;;9.83;4.77;;;7.50;99.90;;;;;;5034468;28;20180;-81
2023/03/11 05:39:27;;;;;;;6.00;4.27;;;7.50;99.90;;;;;;5034402;28;20188;-82
2023/03/11 05:41:55;;;;;;;6.87;4.40;;;7.60;99.90;;;;;;5052353;28;20657;-81
2023/03/11 05:44:21;;;;;;;7.03;4.00;;;7.60;99.90;;;;;;5034699;28;20176;-81
2023/03/11 05:46:47;;;;;;;5.63;3.97;;;7.50;99.90;;;;;;5055105;28;20180;-81
2023/03/11 05:49:12;;;;;;;6.60;3.90;;;7.50;99.90;;;;;;5037605;28;20249;-81
2023/03/11 05:51:39;;;;;;;8.40;4.30;;;7.50;99.90;;;;;;5055506;28;20643;-81
2023/03/11 05:54:10;;;;;;;4.63;4.10;;;7.50;99.90;;;;;;5055358;28;20175;-81
2023/03/11 05:56:36;;;;;;;7.30;4.43;;;7.60;99.90;;;;;;5055645;28;20176;-81
2023/03/11 05:59:01;;;;;;;7.80;4.43;;;7.50;99.90;;;;;;5052643;28;20208;-82
2023/03/11 06:01:27;;;;;;;6.83;4.07;;;7.60;99.90;;;;;;5027840;28;20219;-81
2023/03/11 06:03:53;;;;;;;8.83;4.93;;;7.60;99.90;;;;;;5055567;28;20206;-81
2023/03/11 06:06:19;;;;;;;8.43;4.60;;;7.60;99.90;;;;;;5053532;28;20552;-83
2023/03/11 06:08:48;;;;;;;9.37;4.60;;;7.60;99.90;;;;;;5030673;28;20543;-81
2023/03/11 06:11:15;;;;;;;6.90;3.87;;;7.60;99.90;;;;;;5019070;28;20541;-83
2023/03/11 06:13:41;;;;;;;17.70;9.30;;;7.60;99.90;;;;;;5042299;28;20715;-85
2023/03/11 06:16:07;;;;;;;9.70;5.53;;;7.60;99.90;;;;;;5042421;28;20180;-85
2023/03/11 06:18:33;;;;;;;15.63;6.30;;;7.60;99.90;;;;;;5042369;28;20196;-86
2023/03/11 06:21:00;;;;;;;9.73;5.80;;;7.70;99.90;;;;;;5014872;28;20640;-86
2023/03/11 06:23:27;;;;;;;11.10;5.57;;;7.70;99.90;;;;;;5032017;28;20271;-86
2023/03/11 06:26:04;;;;;;;12.10;5.77;;;7.70;99.90;;;;;;5036881;28;20176;-83
2023/03/11 06:28:30;;;;;;;14.57;6.57;;;7.70;99.90;;;;;;5035751;28;20210;-84
2023/03/11 06:31:05;;;;;;;12.53;5.57;;;7.70;99.90;;;;;;5054188;28;20180;-85
2023/03/11 06:33:30;;;;;;;9.97;4.63;;;7.70;99.90;;;;;;5037959;28;20176;-85
2023/03/11 06:36:00;;;;;;;8.70;4.73;;;7.70;99.90;;;;;;5038373;28;20330;-83
2023/03/11 06:38:26;;;;;;;8.07;3.97;;;7.70;99.90;;;;;;5022191;28;20192;-81
2023/03/11 06:40:52;;;;;;;7.40;4.37;;;7.70;99.90;;;;;;5016735;28;20223;-80
2023/03/11 06:43:19;;;;;;;6.17;3.53;;;7.60;99.90;;;;;;5016833;28;20184;-81
2023/03/11 06:45:45;;;;;;;4.77;4.13;;;7.60;99.90;;;;;;5016814;28;20196;-80
2023/03/11 06:48:10;;;;;;;12.03;3.67;;;7.70;99.90;;;;;;5016681;28;20184;-80
2023/03/11 06:50:36;;;;;;;8.47;4.13;;;7.70;99.90;;;;;;5034342;28;20521;-81
2023/03/11 06:53:05;;;;;;;10.60;5.23;;;7.70;99.90;;;;;;5016472;28;20208;-80
2023/03/11 06:55:31;;;;;;;8.13;4.30;;;7.60;99.90;;;;;;5029696;28;20186;-82
2023/03/11 06:57:56;;;;;;;10.23;5.17;;;7.60;99.90;;;;;;5039855;28;20184;-82
2023/03/11 07:00:22;;;;;;;7.63;3.87;;;7.70;99.90;;;;;;5037890;28;20246;-82
2023/03/11 07:02:48;;;;;;;6.90;3.60;;;7.70;99.90;;;;;;5033257;28;20263;-81
2023/03/11 07:05:14;;;;;;;6.93;4.53;;;7.60;99.90;;;;;;5041513;28;20202;-82
2023/03/11 07:07:39;;;;;;;6.63;4.00;;;7.70;99.90;;;;;;5032191;28;20208;-82
2023/03/11 07:10:06;;;;;;;9.87;4.47;;;7.60;99.90;;;;;;5040117;28;20219;-83
2023/03/11 07:12:31;;;;;;;4.93;4.30;;;7.60;99.90;;;;;;5032514;28;20180;-82
2023/03/11 07:14:58;;;;;;;11.10;4.50;;;7.70;99.90;;;;;;5033641;28;20238;-80
2023/03/11 07:17:25;;;;;;;8.80;4.70;;;7.70;99.90;;;;;;5034094;28;20180;-82
2023/03/11 07:19:51;;;;;;;8.20;4.83;;;7.70;99.90;;;;;;5020558;28;20212;-83
2023/03/11 07:22:17;;;;;;;8.40;4.43;;;7.60;99.90;;;;;;5035674;28;20206;-82
2023/03/11 07:24:49;;;;;;;12.27;5.33;;;7.60;99.90;;;;;;5014785;28;20255;-81
2023/03/11 07:27:15;;;;;;;9.00;4.10;;;7.60;99.90;;;;;;5032140;28;20208;-82
2023/03/11 07:29:40;;;;;;;10.87;5.13;;;7.60;99.90;;;;;;5032761;28;20618;-82
2023/03/11 07:32:07;;;;;;;12.20;4.87;;;7.60;99.90;;;;;;5033420;28;20184;-83
2023/03/11 07:34:33;;;;;;;8.03;4.83;;;7.60;99.90;;;;;;5033860;28;20177;-81
2023/03/11 07:36:59;;;;;;;8.80;5.43;;;7.60;99.90;;;;;;5033064;28;20188;-83
2023/03/11 07:39:24;;;;;;;7.80;5.37;;;7.60;99.90;;;;;;5008146;28;20191;-81
2023/03/11 07:41:50;;;;;;;11.37;5.53;;;7.60;99.90;;;;;;5052037;28;20184;-80
2023/03/11 07:44:16;;;;;;;9.67;5.23;;;7.60;99.90;;;;;;5057284;28;20183;-82
2023/03/11 07:46:42;;;;;;;8.20;4.27;;;7.60;99.90;;;;;;5052516;28;20173;-83
2023/03/11 07:49:08;;;;;;;10.57;5.43;;;7.60;99.90;;;;;;5021846;28;20262;-82
2023/03/11 07:51:36;;;;;;;8.23;4.63;;;7.60;99.90;;;;;;5038443;28;20622;-82
2023/03/11 07:54:02;;;;;;;14.70;5.67;;;7.60;99.90;;;;;;5030676;28;20529;-81
2023/03/11 07:56:30;;;;;;;10.83;6.20;;;7.60;99.90;;;;;;5038143;28;20358;-80
2023/03/11 07:58:58;;;;;;;11.60;4.70;;;7.60;99.90;;;;;;5061385;28;20207;-84
2023/03/11 08:01:26;;;;;;;7.20;4.77;;;7.60;99.90;;;;;;5042003;28;20307;-82
2023/03/11 08:03:57;;;;;;;10.80;4.57;;;7.60;99.90;;;;;;5051951;28;20249;-82
2023/03/11 08:06:30;;;;;;;11.13;4.50;;;7.60;99.90;;;;;;5034019;28;20175;-81
2023/03/11 08:08:56;;;;;;;11.73;5.30;;;7.50;99.90;;;;;;5033962;28;20180;-82
2023/03/11 08:11:22;;;;;;;8.90;4.70;;;7.50;99.90;;;;;;5051818;28;20214;-81
2023/03/11 08:13:49;;;;;;;10.03;4.67;;;7.50;99.90;;;;;;5033003;28;20243;-81
2023/03/11 08:16:17;;;;;;;5.97;3.77;;;7.50;99.90;;;;;;5031950;28;20633;-81
2023/03/11 08:18:44;;;;;;;5.43;3.53;;;7.50;99.90;;;;;;5032135;28;20200;-81
2023/03/11 08:21:17;;;;;;;6.23;3.80;;;7.50;99.90;;;;;;5034270;28;20311;-82
2023/03/11 08:23:44;;;;;;;5.20;3.83;;;7.50;99.90;;;;;;5032137;28;20180;-82
2023/03/11 08:26:14;;;;;;;6.37;3.53;;;7.50;99.90;;;;;;5032178;28;20172;-81
2023/03/11 08:28:39;;;;;;;11.63;3.67;;;7.50;99.90;;;;;;5031999;28;20177;-82
2023/03/11 08:31:17;;;;;;;7.10;3.50;;;7.50;99.90;;;;;;5014700;28;20238;-80
2023/03/11 08:33:44;;;;;;;8.73;3.47;;;7.50;99.90;;;;;;5032850;28;20172;-81
2023/03/11 08:36:10;;;;;;;5.90;4.67;;;7.40;99.90;;;;;;5044484;28;20184;-81
2023/03/11 08:38:36;;;;;;;8.53;3.80;;;7.40;99.90;;;;;;5035386;28;20270;-81
2023/03/11 08:41:02;;;;;;;8.70;4.33;;;7.40;99.90;;;;;;5034395;28;20215;-82
2023/03/11 08:43:28;;;;;;;6.97;3.27;;;7.30;99.90;;;;;;5052340;28;20176;-81
2023/03/11 08:45:53;;;;;;;5.17;3.50;;;7.30;99.90;;;;;;5052175;28;20637;-81
2023/03/11 08:48:19;;;;;;;9.57;3.40;;;7.30;99.90;;;;;;5052354;28;20730;-81
2023/03/11 08:50:45;;;;;;;2.63;2.30;;;7.20;99.90;;;;;;5052049;28;20195;-82
2023/03/11 08:53:10;;;;;;;5.20;3.10;;;7.20;99.90;;;;;;5034110;28;20187;-81
2023/03/11 08:55:36;;;;;;;3.27;2.13;;;7.10;99.90;;;;;;5052139;28;20203;-82
2023/03/11 08:58:02;;;;;;;4.23;2.63;;;7.20;99.90;;;;;;5034383;28;20265;-81
2023/03/11 09:00:27;;;;;;;2.40;1.93;;;7.10;99.90;;;;;;5026212;28;20642;-81
2023/03/11 09:02:53;;;;;;;2.03;1.80;;;7.00;99.90;;;;;;5042587;28;20268;-81
2023/03/11 09:05:19;;;;;;;2.87;1.33;;;6.90;99.90;;;;;;5040782;28;20634;-82
2023/03/11 09:07:45;;;;;;;3.53;1.83;;;6.90;99.90;;;;;;5024579;28;20215;-83
2023/03/11 09:10:15;;;;;;;2.40;2.20;;;6.90;99.90;;;;;;5024431;28;20211;-81
2023/03/11 09:12:40;;;;;;;3.27;1.93;;;6.90;99.90;;;;;;5051719;28;20243;-82
2023/03/11 09:15:07;;;;;;;4.77;2.20;;;6.90;99.90;;;;;;5025136;28;20665;-81
2023/03/11 09:17:33;;;;;;;2.10;1.40;;;6.80;99.90;;;;;;5041768;28;20645;-82
2023/03/11 09:19:58;;;;;;;1.83;1.53;;;6.80;99.90;;;;;;5023924;28;20238;-83
2023/03/11 09:22:24;;;;;;;2.50;2.23;;;6.70;99.90;;;;;;5046114;28;20543;-82
2023/03/11 09:24:50;;;;;;;2.10;1.77;;;6.80;99.90;;;;;;5009108;28;20184;-82
2023/03/11 09:27:15;;;;;;;2.13;1.20;;;6.90;99.90;;;;;;5045657;28;20181;-84
2023/03/11 09:29:41;;;;;;;1.53;1.43;;;6.80;99.90;;;;;;5044209;28;20184;-83
2023/03/11 09:32:08;;;;;;;2.73;1.57;;;6.70;99.90;;;;;;5027114;28;20180;-82
2023/03/11 09:34:34;;;;;;;2.70;1.53;;;6.60;99.90;;;;;;5025627;28;20641;-82
2023/03/11 09:37:00;;;;;;;1.60;1.30;;;6.60;99.90;;;;;;5043838;28;20303;-82
2023/03/11 09:39:26;;;;;;;5.63;1.73;;;6.60;99.90;;;;;;5041495;28;20181;-81
2023/03/11 09:42:24;;;;;;;1.67;1.43;;;6.60;99.90;;;;;;5044488;28;20328;-81
2023/03/11 09:45:05;;;;;;;1.20;1.10;;;6.60;99.90;;;;;;5027643;28;20192;-83
2023/03/11 09:47:59;;;;;;;1.43;0.97;;;6.60;99.90;;;;;;5039021;28;20259;-83
2023/03/11 09:50:39;;;;;;;1.73;1.40;;;6.70;99.90;;;;;;5027945;28;20199;-83
2023/03/11 09:53:40;;;;;;;6.80;1.40;;;6.60;99.90;;;;;;5053125;28;20206;-84
2023/03/11 09:56:09;;;;;;;1.27;1.10;;;6.70;99.90;;;;;;5046107;28;20188;-83
2023/03/11 09:58:49;;;;;;;1.73;1.37;;;6.60;99.90;;;;;;5049550;28;20184;-83
2023/03/11 10:01:26;;;;;;;1.47;1.37;;;6.70;99.90;;;;;;5052271;28;20222;-83
2023/03/11 10:03:56;;;;;;;1.97;1.40;;;6.70;99.90;;;;;;5052111;28;20206;-83
2023/03/11 10:06:29;;;;;;;2.03;1.53;;;6.60;99.90;;;;;;5035352;28;20187;-84
2023/03/11 10:09:32;;;;;;;2.30;1.67;;;6.60;99.90;;;;;;5033724;28;20180;-83
2023/03/11 10:12:25;;;;;;;1.50;1.40;;;6.60;99.90;;;;;;5048527;28;20457;-83
2023/03/11 10:15:18;;;;;;;1.37;1.17;;;6.60;99.90;;;;;;5051077;28;20233;-83
2023/03/11 10:17:57;;;;;;;1.73;1.60;;;6.50;99.90;;;;;;5051853;28;20775;-82
2023/03/11 10:21:20;;;;;;;2.33;1.43;;;6.50;99.90;;;;;;5050027;28;20216;-83
2023/03/11 10:24:02;;;;;;;1.37;1.03;;;6.50;99.90;;;;;;4971257;28;20186;-81
2023/03/11 10:26:35;;;;;;;1.57;1.17;;;6.50;99.90;;;;;;4970192;28;20197;-81
2023/03/11 10:29:37;;;;;;;2.17;1.40;;;6.50;99.90;;;;;;5027966;28;20192;-82
2023/03/11 10:32:24;;;;;;;0.97;0.97;;;6.40;99.90;;;;;;5032688;28;20186;-83
2023/03/11 10:35:04;;;;;;;1.20;1.10;;;6.40;99.90;;;;;;5056033;28;20210;-83
2023/03/11 10:37:36;;;;;;;1.37;1.27;;;6.40;99.90;;;;;;5033269;28;20182;-85
2023/03/11 10:40:16;;;;;;;1.37;1.27;;;6.40;99.90;;;;;;5051221;28;20199;-83
2023/03/11 10:42:44;;;;;;;0.90;0.90;;;6.40;99.90;;;;;;5032744;28;20596;-83
2023/03/11 10:45:13;;;;;;;1.53;0.83;;;6.30;99.90;;;;;;5016435;28;20188;-86
2023/03/11 10:47:38;;;;;;;1.17;1.07;;;6.20;99.90;;;;;;5032077;28;20275;-86
2023/03/11 10:50:05;;;;;;;1.60;1.03;;;6.20;99.90;;;;;;5032730;28;20314;-84
2023/03/11 10:52:30;;;;;;;1.43;1.30;;;6.10;99.90;;;;;;5032429;28;20195;-84
2023/03/11 10:55:01;;;;;;;0.73;0.73;;;6.20;99.90;;;;;;5031564;28;20184;-82
2023/03/11 10:57:27;;;;;;;0.90;0.90;;;6.20;99.90;;;;;;5048038;28;20191;-82
2023/03/11 10:59:55;;;;;;;3.40;2.07;;;6.10;99.90;;;;;;5050988;28;20200;-83
2023/03/11 11:02:57;;;;;;;1.00;1.00;;;6.10;99.90;;;;;;5033021;28;20187;-83
2023/03/11 11:05:22;;;;;;;1.27;1.10;;;6.10;99.90;;;;;;5007722;28;20210;-84
2023/03/11 11:07:52;;;;;;;2.20;1.50;;;6.00;99.90;;;;;;5032250;28;20214;-84
2023/03/11 11:10:26;;;;;;;1.17;1.07;;;6.00;99.90;;;;;;5032705;28;20192;-84
2023/03/11 11:12:56;;;;;;;0.90;0.90;;;6.00;99.90;;;;;;5029284;28;20268;-84
2023/03/11 11:15:24;;;;;;;1.50;1.30;;;6.00;99.90;;;;;;5030069;28;20549;-84
2023/03/11 11:17:51;;;;;;;2.30;1.13;;;5.90;99.90;;;;;;5028958;28;20608;-83
2023/03/11 11:20:18;;;;;;;1.13;1.07;;;5.90;99.90;;;;;;5028654;28;20272;-84
2023/03/11 11:22:56;;;;;;;3.90;1.43;;;5.80;99.90;;;;;;5028391;28;20192;-85
2023/03/11 11:25:37;;;;;;;2.20;1.93;;;5.80;99.90;;;;;;5029927;28;20267;-84
2023/03/11 11:28:15;;;;;;;1.70;0.90;;;5.80;99.90;;;;;;5028697;28;20211;-83
2023/03/11 11:30:56;;;;;;;1.00;1.00;;;5.80;99.90;;;;;;5026245;28;20262;-82
2023/03/11 11:33:37;;;;;;;1.13;1.13;;;5.70;99.90;;;;;;5030156;28;20274;-82
2023/03/11 11:36:05;;;;;;;2.30;0.97;;;5.60;99.90;;;;;;5030008;28;20226;-81
2023/03/11 11:38:32;;;;;;;1.20;1.20;;;5.60;99.90;;;;;;5029839;28;20708;-82
2023/03/11 11:41:02;;;;;;;3.03;1.10;;;5.60;99.90;;;;;;5029468;28;20212;-83
2023/03/11 11:43:48;;;;;;;1.57;1.47;;;5.60;99.90;;;;;;5029110;28;20920;-85
2023/03/11 11:46:34;;;;;;;2.70;1.30;;;5.60;99.90;;;;;;5029528;28;20192;-84
2023/03/11 11:49:14;;;;;;;4.53;1.27;;;5.60;99.90;;;;;;5021435;28;20698;-84
2023/03/11 11:51:43;;;;;;;1.10;1.03;;;5.60;99.90;;;;;;5028829;28;20558;-83
2023/03/11 11:54:23;;;;;;;2.57;1.43;;;5.60;99.90;;;;;;5029489;28;20207;-82
2023/03/11 11:56:48;;;;;;;1.43;1.33;;;5.60;99.90;;;;;;5029242;28;20188;-82
2023/03/11 11:59:20;;;;;;;2.43;1.53;;;5.60;99.90;;;;;;5029881;28;20204;-83
2023/03/11 12:02:09;;;;;;;1.17;1.17;;;5.50;99.90;;;;;;5028140;28;20278;-83
2023/03/11 12:05:05;;;;;;;2.20;1.10;;;5.50;99.90;;;;;;5011348;28;20677;-83
2023/03/11 12:07:37;;;;;;;1.00;0.90;;;5.40;99.90;;;;;;5028587;28;20195;-82
2023/03/11 12:13:43;;;;;;;0.80;0.80;;;5.30;99.90;;;;;;5158080;22;20289;31
2023/03/11 12:16:28;;;;;;;2.60;1.93;;;5.10;99.90;;;;;;5007126;28;20284;-82
2023/03/11 12:19:16;;;;;;;0.83;0.83;;;4.90;99.90;;;;;;4994240;28;20276;-83
2023/03/11 12:21:56;;;;;;;2.03;1.07;;;4.90;99.90;;;;;;5011262;28;20247;-82
2023/03/11 12:24:51;;;;;;;1.80;1.57;;;4.90;99.90;;;;;;5011573;28;20247;-81
2023/03/11 12:27:25;;;;;;;3.70;1.00;;;4.80;99.90;;;;;;4965250;28;20213;-82
2023/03/11 12:30:02;;;;;;;1.13;0.80;;;4.80;99.90;;;;;;4992892;28;20286;-82
2023/03/11 12:32:36;;;;;;;0.80;0.80;;;4.70;99.90;;;;;;5004952;28;20189;-82
2023/03/11 12:35:34;;;;;;;0.80;0.80;;;4.60;99.90;;;;;;4997959;28;20236;-82
2023/03/11 12:38:06;;;;;;;1.10;0.80;;;4.40;99.90;;;;;;4966049;28;20207;-83
2023/03/11 12:40:43;;;;;;;1.37;1.27;;;4.30;99.90;;;;;;5010669;28;20204;-84
2023/03/11 12:43:34;;;;;;;1.27;1.03;;;4.30;99.90;;;;;;4989072;28;20190;-83
2023/03/11 12:46:04;;;;;;;0.87;0.87;;;4.30;99.90;;;;;;5003805;28;20288;-82
2023/03/11 12:48:33;;;;;;;2.13;0.70;;;4.20;99.90;;;;;;4990469;28;20188;-83
2023/03/11 12:50:59;;;;;;;0.83;0.83;;;4.20;99.90;;;;;;5010622;28;20190;-83
2023/03/11 12:53:49;;;;;;;1.30;0.90;;;4.20;99.90;;;;;;5010836;28;20181;-83
2023/03/11 12:56:42;;;;;;;1.60;1.50;;;4.10;99.90;;;;;;5011651;28;20684;-82
2023/03/11 12:59:45;;;;;;;1.70;1.60;;;4.00;99.90;;;;;;5010985;28;20182;-82
2023/03/11 13:02:32;;;;;;;1.30;1.20;;;3.90;99.90;;;;;;5006920;28;20192;-83
2023/03/11 13:05:23;;;;;;;2.10;1.30;;;3.80;99.90;;;;;;4996185;28;20243;-84
2023/03/11 13:08:23;;;;;;;1.27;0.80;;;3.80;99.90;;;;;;5000500;28;20248;-84
2023/03/11 13:10:51;;;;;;;1.57;1.47;;;3.70;99.90;;;;;;5000076;28;20690;-84
2023/03/11 13:13:37;;;;;;;6.17;2.77;;;3.70;99.90;;;;;;5012690;28;20283;-82